sensor_id;sensor_type;location;lat;lon;timestamp;P1;durP1;ratioP1;P2;durP2;ratioP2
19167;SDS011;9716;53.114;18.040;2023-07-29T00:00:24;2.42;;;1.63;;
19167;SDS011;9716;53.114;18.040;2023-07-29T00:03:16;2.08;;;1.55;;
19167;SDS011;9716;53.114;18.040;2023-07-29T00:05:44;3.50;;;2.15;;
19167;SDS011;9716;53.114;18.040;2023-07-29T00:08:13;3.10;;;2.28;;
19167;SDS011;9716;53.114;18.040;2023-07-29T00:10:41;3.10;;;1.58;;
19167;SDS011;9716;53.114;18.040;2023-07-29T00:13:10;6.55;;;2.13;;
19167;SDS011;9716;53.114;18.040;2023-07-29T00:15:38;3.03;;;1.73;;
19167;SDS011;9716;53.114;18.040;2023-07-29T00:18:07;2.45;;;1.88;;
19167;SDS011;9716;53.114;18.040;2023-07-29T00:20:37;2.28;;;1.80;;
19167;SDS011;9716;53.114;18.040;2023-07-29T00:23:05;2.28;;;1.60;;
19167;SDS011;9716;53.114;18.040;2023-07-29T00:25:34;4.32;;;1.90;;
19167;SDS011;9716;53.114;18.040;2023-07-29T00:28:03;5.25;;;1.80;;
19167;SDS011;9716;53.114;18.040;2023-07-29T00:30:31;3.15;;;1.83;;
19167;SDS011;9716;53.114;18.040;2023-07-29T00:33:00;3.38;;;1.88;;
19167;SDS011;9716;53.114;18.040;2023-07-29T00:35:28;3.25;;;1.92;;
19167;SDS011;9716;53.114;18.040;2023-07-29T00:37:58;2.38;;;1.83;;
19167;SDS011;9716;53.114;18.040;2023-07-29T00:40:27;2.30;;;1.80;;
19167;SDS011;9716;53.114;18.040;2023-07-29T00:42:57;2.88;;;1.70;;
19167;SDS011;9716;53.114;18.040;2023-07-29T00:45:25;3.40;;;1.75;;
19167;SDS011;9716;53.114;18.040;2023-07-29T00:47:56;3.00;;;1.80;;
19167;SDS011;9716;53.114;18.040;2023-07-29T00:50:25;2.72;;;2.05;;
19167;SDS011;9716;53.114;18.040;2023-07-29T00:52:55;2.53;;;1.70;;
19167;SDS011;9716;53.114;18.040;2023-07-29T00:55:25;4.53;;;1.83;;
19167;SDS011;9716;53.114;18.040;2023-07-29T00:57:55;2.35;;;1.90;;
19167;SDS011;9716;53.114;18.040;2023-07-29T01:00:24;1.58;;;1.48;;
19167;SDS011;9716;53.114;18.040;2023-07-29T01:02:52;2.00;;;1.80;;
19167;SDS011;9716;53.114;18.040;2023-07-29T01:05:22;4.45;;;2.15;;
19167;SDS011;9716;53.114;18.040;2023-07-29T01:07:55;2.58;;;1.80;;
19167;SDS011;9716;53.114;18.040;2023-07-29T01:10:31;4.13;;;2.60;;
19167;SDS011;9716;53.114;18.040;2023-07-29T01:13:10;2.83;;;2.03;;
19167;SDS011;9716;53.114;18.040;2023-07-29T01:15:46;3.60;;;1.85;;
19167;SDS011;9716;53.114;18.040;2023-07-29T01:18:22;3.97;;;1.95;;
19167;SDS011;9716;53.114;18.040;2023-07-29T01:20:53;5.05;;;1.60;;
19167;SDS011;9716;53.114;18.040;2023-07-29T01:23:27;1.75;;;1.38;;
19167;SDS011;9716;53.114;18.040;2023-07-29T01:25:57;2.13;;;1.92;;
19167;SDS011;9716;53.114;18.040;2023-07-29T01:28:26;2.15;;;1.80;;
19167;SDS011;9716;53.114;18.040;2023-07-29T01:30:57;2.60;;;1.92;;
19167;SDS011;9716;53.114;18.040;2023-07-29T01:33:30;2.72;;;1.92;;
19167;SDS011;9716;53.114;18.040;2023-07-29T01:36:03;2.28;;;1.65;;
19167;SDS011;9716;53.114;18.040;2023-07-29T01:38:40;3.83;;;2.00;;
19167;SDS011;9716;53.114;18.040;2023-07-29T01:41:11;3.45;;;1.92;;
19167;SDS011;9716;53.114;18.040;2023-07-29T01:43:40;2.80;;;1.88;;
19167;SDS011;9716;53.114;18.040;2023-07-29T01:46:11;3.00;;;2.00;;
19167;SDS011;9716;53.114;18.040;2023-07-29T01:48:39;5.05;;;2.50;;
19167;SDS011;9716;53.114;18.040;2023-07-29T01:51:08;2.17;;;1.65;;
19167;SDS011;9716;53.114;18.040;2023-07-29T01:53:40;4.32;;;2.00;;
19167;SDS011;9716;53.114;18.040;2023-07-29T01:56:08;3.22;;;2.13;;
19167;SDS011;9716;53.114;18.040;2023-07-29T01:58:37;3.33;;;2.03;;
19167;SDS011;9716;53.114;18.040;2023-07-29T02:01:05;3.55;;;2.05;;
19167;SDS011;9716;53.114;18.040;2023-07-29T02:03:34;3.83;;;1.95;;
19167;SDS011;9716;53.114;18.040;2023-07-29T02:06:02;2.83;;;1.95;;
19167;SDS011;9716;53.114;18.040;2023-07-29T02:08:31;2.80;;;2.05;;
19167;SDS011;9716;53.114;18.040;2023-07-29T02:11:00;1.67;;;1.58;;
19167;SDS011;9716;53.114;18.040;2023-07-29T02:13:29;2.85;;;2.35;;
19167;SDS011;9716;53.114;18.040;2023-07-29T02:15:57;2.47;;;2.00;;
19167;SDS011;9716;53.114;18.040;2023-07-29T02:18:26;2.40;;;1.63;;
19167;SDS011;9716;53.114;18.040;2023-07-29T02:20:54;3.88;;;2.13;;
19167;SDS011;9716;53.114;18.040;2023-07-29T02:23:23;2.15;;;1.95;;
19167;SDS011;9716;53.114;18.040;2023-07-29T02:25:51;2.45;;;2.20;;
19167;SDS011;9716;53.114;18.040;2023-07-29T02:28:21;2.78;;;1.83;;
19167;SDS011;9716;53.114;18.040;2023-07-29T02:30:54;3.55;;;2.08;;
19167;SDS011;9716;53.114;18.040;2023-07-29T02:33:37;3.17;;;2.42;;
19167;SDS011;9716;53.114;18.040;2023-07-29T02:36:06;2.13;;;1.65;;
19167;SDS011;9716;53.114;18.040;2023-07-29T02:38:34;1.80;;;1.55;;
19167;SDS011;9716;53.114;18.040;2023-07-29T02:41:03;2.60;;;1.90;;
19167;SDS011;9716;53.114;18.040;2023-07-29T02:43:33;2.72;;;1.98;;
19167;SDS011;9716;53.114;18.040;2023-07-29T02:46:01;3.88;;;2.20;;
19167;SDS011;9716;53.114;18.040;2023-07-29T02:48:30;3.22;;;2.05;;
19167;SDS011;9716;53.114;18.040;2023-07-29T02:50:58;2.80;;;1.90;;
19167;SDS011;9716;53.114;18.040;2023-07-29T02:53:27;3.08;;;2.00;;
19167;SDS011;9716;53.114;18.040;2023-07-29T02:55:55;2.25;;;2.03;;
19167;SDS011;9716;53.114;18.040;2023-07-29T02:58:24;2.50;;;1.80;;
19167;SDS011;9716;53.114;18.040;2023-07-29T03:00:56;4.90;;;2.13;;
19167;SDS011;9716;53.114;18.040;2023-07-29T03:03:28;2.30;;;2.10;;
19167;SDS011;9716;53.114;18.040;2023-07-29T03:05:58;3.88;;;1.70;;
19167;SDS011;9716;53.114;18.040;2023-07-29T03:08:28;3.70;;;2.28;;
19167;SDS011;9716;53.114;18.040;2023-07-29T03:10:56;2.95;;;2.15;;
19167;SDS011;9716;53.114;18.040;2023-07-29T03:13:25;2.78;;;2.08;;
19167;SDS011;9716;53.114;18.040;2023-07-29T03:16:00;4.65;;;2.30;;
19167;SDS011;9716;53.114;18.040;2023-07-29T03:18:33;3.50;;;1.80;;
19167;SDS011;9716;53.114;18.040;2023-07-29T03:21:01;3.45;;;2.25;;
19167;SDS011;9716;53.114;18.040;2023-07-29T03:23:31;3.67;;;2.08;;
19167;SDS011;9716;53.114;18.040;2023-07-29T03:26:01;4.95;;;2.25;;
19167;SDS011;9716;53.114;18.040;2023-07-29T03:28:37;3.50;;;1.88;;
19167;SDS011;9716;53.114;18.040;2023-07-29T03:31:07;3.20;;;2.25;;
19167;SDS011;9716;53.114;18.040;2023-07-29T03:33:37;6.22;;;2.30;;
19167;SDS011;9716;53.114;18.040;2023-07-29T03:36:05;3.80;;;2.30;;
19167;SDS011;9716;53.114;18.040;2023-07-29T03:38:34;3.83;;;2.25;;
19167;SDS011;9716;53.114;18.040;2023-07-29T03:41:07;5.72;;;2.78;;
19167;SDS011;9716;53.114;18.040;2023-07-29T03:43:36;4.22;;;2.70;;
19167;SDS011;9716;53.114;18.040;2023-07-29T03:46:05;6.07;;;2.20;;
19167;SDS011;9716;53.114;18.040;2023-07-29T03:48:38;3.20;;;2.55;;
19167;SDS011;9716;53.114;18.040;2023-07-29T03:51:06;4.43;;;2.63;;
19167;SDS011;9716;53.114;18.040;2023-07-29T03:53:35;5.75;;;2.92;;
19167;SDS011;9716;53.114;18.040;2023-07-29T03:56:03;4.22;;;2.90;;
19167;SDS011;9716;53.114;18.040;2023-07-29T03:58:32;3.40;;;2.50;;
19167;SDS011;9716;53.114;18.040;2023-07-29T04:01:01;4.03;;;2.50;;
19167;SDS011;9716;53.114;18.040;2023-07-29T04:03:31;4.22;;;2.72;;
19167;SDS011;9716;53.114;18.040;2023-07-29T04:06:00;4.30;;;3.05;;
19167;SDS011;9716;53.114;18.040;2023-07-29T04:08:29;5.60;;;2.88;;
19167;SDS011;9716;53.114;18.040;2023-07-29T04:10:58;5.97;;;3.08;;
19167;SDS011;9716;53.114;18.040;2023-07-29T04:13:26;4.10;;;2.65;;
19167;SDS011;9716;53.114;18.040;2023-07-29T04:15:54;3.88;;;2.38;;
19167;SDS011;9716;53.114;18.040;2023-07-29T04:18:23;4.15;;;2.55;;
19167;SDS011;9716;53.114;18.040;2023-07-29T04:20:53;3.22;;;2.72;;
19167;SDS011;9716;53.114;18.040;2023-07-29T04:23:21;2.55;;;2.25;;
19167;SDS011;9716;53.114;18.040;2023-07-29T04:25:50;3.53;;;2.63;;
19167;SDS011;9716;53.114;18.040;2023-07-29T04:28:18;4.43;;;2.33;;
19167;SDS011;9716;53.114;18.040;2023-07-29T04:30:47;3.53;;;2.50;;
19167;SDS011;9716;53.114;18.040;2023-07-29T04:33:15;5.28;;;2.95;;
19167;SDS011;9716;53.114;18.040;2023-07-29T04:35:44;4.30;;;2.30;;
19167;SDS011;9716;53.114;18.040;2023-07-29T04:38:14;3.15;;;2.28;;
19167;SDS011;9716;53.114;18.040;2023-07-29T04:40:43;3.30;;;2.45;;
19167;SDS011;9716;53.114;18.040;2023-07-29T04:43:12;2.95;;;2.15;;
19167;SDS011;9716;53.114;18.040;2023-07-29T04:45:42;4.68;;;2.35;;
19167;SDS011;9716;53.114;18.040;2023-07-29T04:48:11;3.28;;;1.83;;
19167;SDS011;9716;53.114;18.040;2023-07-29T04:50:39;3.72;;;2.30;;
19167;SDS011;9716;53.114;18.040;2023-07-29T04:53:08;2.63;;;2.08;;
19167;SDS011;9716;53.114;18.040;2023-07-29T04:55:38;4.25;;;2.22;;
19167;SDS011;9716;53.114;18.040;2023-07-29T04:58:08;4.40;;;1.90;;
19167;SDS011;9716;53.114;18.040;2023-07-29T05:00:36;3.25;;;2.00;;
19167;SDS011;9716;53.114;18.040;2023-07-29T05:03:05;4.22;;;2.15;;
19167;SDS011;9716;53.114;18.040;2023-07-29T05:05:34;3.10;;;2.22;;
19167;SDS011;9716;53.114;18.040;2023-07-29T05:08:03;2.08;;;1.67;;
19167;SDS011;9716;53.114;18.040;2023-07-29T05:10:31;2.78;;;2.05;;
19167;SDS011;9716;53.114;18.040;2023-07-29T05:13:01;2.45;;;1.50;;
19167;SDS011;9716;53.114;18.040;2023-07-29T05:15:30;3.25;;;1.77;;
19167;SDS011;9716;53.114;18.040;2023-07-29T05:17:59;2.35;;;1.83;;
19167;SDS011;9716;53.114;18.040;2023-07-29T05:20:27;1.95;;;1.58;;
19167;SDS011;9716;53.114;18.040;2023-07-29T05:22:56;2.10;;;1.90;;
19167;SDS011;9716;53.114;18.040;2023-07-29T05:25:24;3.00;;;2.10;;
19167;SDS011;9716;53.114;18.040;2023-07-29T05:27:53;3.35;;;1.95;;
19167;SDS011;9716;53.114;18.040;2023-07-29T05:30:23;3.58;;;2.40;;
19167;SDS011;9716;53.114;18.040;2023-07-29T05:32:53;9.45;;;2.65;;
19167;SDS011;9716;53.114;18.040;2023-07-29T05:35:22;3.22;;;2.45;;
19167;SDS011;9716;53.114;18.040;2023-07-29T05:37:51;6.20;;;2.25;;
19167;SDS011;9716;53.114;18.040;2023-07-29T05:40:19;4.32;;;2.50;;
19167;SDS011;9716;53.114;18.040;2023-07-29T05:42:48;4.60;;;2.08;;
19167;SDS011;9716;53.114;18.040;2023-07-29T05:45:16;9.27;;;2.50;;
19167;SDS011;9716;53.114;18.040;2023-07-29T05:47:46;1.80;;;1.65;;
19167;SDS011;9716;53.114;18.040;2023-07-29T05:50:16;4.35;;;2.25;;
19167;SDS011;9716;53.114;18.040;2023-07-29T05:52:44;3.35;;;2.03;;
19167;SDS011;9716;53.114;18.040;2023-07-29T05:55:13;3.50;;;2.42;;
19167;SDS011;9716;53.114;18.040;2023-07-29T05:57:41;1.90;;;1.70;;
19167;SDS011;9716;53.114;18.040;2023-07-29T06:00:10;5.03;;;2.03;;
19167;SDS011;9716;53.114;18.040;2023-07-29T06:02:40;2.58;;;1.90;;
19167;SDS011;9716;53.114;18.040;2023-07-29T06:05:10;2.13;;;1.80;;
19167;SDS011;9716;53.114;18.040;2023-07-29T06:07:38;2.70;;;1.80;;
19167;SDS011;9716;53.114;18.040;2023-07-29T06:10:12;1.70;;;1.52;;
19167;SDS011;9716;53.114;18.040;2023-07-29T06:12:44;3.67;;;2.25;;
19167;SDS011;9716;53.114;18.040;2023-07-29T06:15:12;3.03;;;1.88;;
19167;SDS011;9716;53.114;18.040;2023-07-29T06:17:41;2.08;;;1.50;;
19167;SDS011;9716;53.114;18.040;2023-07-29T06:20:11;3.13;;;1.83;;
19167;SDS011;9716;53.114;18.040;2023-07-29T06:22:40;3.95;;;1.80;;
19167;SDS011;9716;53.114;18.040;2023-07-29T06:25:09;2.47;;;1.73;;
19167;SDS011;9716;53.114;18.040;2023-07-29T06:27:38;3.95;;;1.95;;
19167;SDS011;9716;53.114;18.040;2023-07-29T06:30:07;1.95;;;1.40;;
19167;SDS011;9716;53.114;18.040;2023-07-29T06:32:36;1.77;;;1.50;;
19167;SDS011;9716;53.114;18.040;2023-07-29T06:35:04;2.40;;;1.55;;
19167;SDS011;9716;53.114;18.040;2023-07-29T06:37:35;1.58;;;1.30;;
19167;SDS011;9716;53.114;18.040;2023-07-29T06:40:04;1.73;;;1.60;;
19167;SDS011;9716;53.114;18.040;2023-07-29T06:42:33;3.77;;;1.50;;
19167;SDS011;9716;53.114;18.040;2023-07-29T06:45:02;3.03;;;1.67;;
19167;SDS011;9716;53.114;18.040;2023-07-29T06:47:31;2.60;;;1.55;;
19167;SDS011;9716;53.114;18.040;2023-07-29T06:50:00;1.95;;;1.75;;
19167;SDS011;9716;53.114;18.040;2023-07-29T06:52:29;2.25;;;1.60;;
19167;SDS011;9716;53.114;18.040;2023-07-29T06:54:58;1.55;;;1.45;;
19167;SDS011;9716;53.114;18.040;2023-07-29T06:57:27;2.17;;;1.40;;
19167;SDS011;9716;53.114;18.040;2023-07-29T06:59:56;2.95;;;1.42;;
19167;SDS011;9716;53.114;18.040;2023-07-29T07:02:24;3.00;;;1.52;;
19167;SDS011;9716;53.114;18.040;2023-07-29T07:04:53;2.72;;;1.50;;
19167;SDS011;9716;53.114;18.040;2023-07-29T07:07:21;2.88;;;1.30;;
19167;SDS011;9716;53.114;18.040;2023-07-29T07:09:50;1.63;;;1.30;;
19167;SDS011;9716;53.114;18.040;2023-07-29T07:12:20;2.45;;;1.30;;
19167;SDS011;9716;53.114;18.040;2023-07-29T07:14:48;2.08;;;1.38;;
19167;SDS011;9716;53.114;18.040;2023-07-29T07:17:17;2.50;;;1.50;;
19167;SDS011;9716;53.114;18.040;2023-07-29T07:19:46;1.63;;;1.30;;
19167;SDS011;9716;53.114;18.040;2023-07-29T07:22:14;2.35;;;1.50;;
19167;SDS011;9716;53.114;18.040;2023-07-29T07:24:43;2.30;;;1.40;;
19167;SDS011;9716;53.114;18.040;2023-07-29T07:27:12;1.58;;;1.25;;
19167;SDS011;9716;53.114;18.040;2023-07-29T07:29:42;1.42;;;1.30;;
19167;SDS011;9716;53.114;18.040;2023-07-29T07:32:11;1.60;;;1.20;;
19167;SDS011;9716;53.114;18.040;2023-07-29T07:34:39;2.05;;;1.33;;
19167;SDS011;9716;53.114;18.040;2023-07-29T07:37:08;1.23;;;1.08;;
19167;SDS011;9716;53.114;18.040;2023-07-29T07:39:36;1.80;;;1.48;;
19167;SDS011;9716;53.114;18.040;2023-07-29T07:42:05;3.28;;;1.20;;
19167;SDS011;9716;53.114;18.040;2023-07-29T07:44:33;2.13;;;1.55;;
19167;SDS011;9716;53.114;18.040;2023-07-29T07:47:04;2.22;;;1.45;;
19167;SDS011;9716;53.114;18.040;2023-07-29T07:49:32;3.05;;;1.52;;
19167;SDS011;9716;53.114;18.040;2023-07-29T07:52:01;1.35;;;1.25;;
19167;SDS011;9716;53.114;18.040;2023-07-29T07:54:29;1.15;;;1.05;;
19167;SDS011;9716;53.114;18.040;2023-07-29T07:56:58;3.90;;;1.50;;
19167;SDS011;9716;53.114;18.040;2023-07-29T07:59:27;2.30;;;1.27;;
19167;SDS011;9716;53.114;18.040;2023-07-29T08:01:55;2.33;;;1.20;;
19167;SDS011;9716;53.114;18.040;2023-07-29T08:04:25;2.00;;;1.13;;
19167;SDS011;9716;53.114;18.040;2023-07-29T08:06:54;1.52;;;1.42;;
19167;SDS011;9716;53.114;18.040;2023-07-29T08:09:22;1.20;;;1.08;;
19167;SDS011;9716;53.114;18.040;2023-07-29T08:11:51;2.88;;;1.25;;
19167;SDS011;9716;53.114;18.040;2023-07-29T08:14:19;1.25;;;1.13;;
19167;SDS011;9716;53.114;18.040;2023-07-29T08:16:47;1.20;;;0.88;;
19167;SDS011;9716;53.114;18.040;2023-07-29T08:19:16;2.25;;;1.20;;
19167;SDS011;9716;53.114;18.040;2023-07-29T08:21:49;1.23;;;1.13;;
19167;SDS011;9716;53.114;18.040;2023-07-29T08:24:18;1.13;;;1.00;;
19167;SDS011;9716;53.114;18.040;2023-07-29T08:26:47;1.42;;;1.33;;
19167;SDS011;9716;53.114;18.040;2023-07-29T08:29:15;2.47;;;1.23;;
19167;SDS011;9716;53.114;18.040;2023-07-29T08:31:44;1.20;;;1.00;;
19167;SDS011;9716;53.114;18.040;2023-07-29T08:34:12;1.00;;;0.90;;
19167;SDS011;9716;53.114;18.040;2023-07-29T08:36:41;0.98;;;0.90;;
19167;SDS011;9716;53.114;18.040;2023-07-29T08:39:10;1.15;;;1.05;;
19167;SDS011;9716;53.114;18.040;2023-07-29T08:41:41;1.73;;;1.00;;
19167;SDS011;9716;53.114;18.040;2023-07-29T08:44:18;1.98;;;0.98;;
19167;SDS011;9716;53.114;18.040;2023-07-29T08:46:50;3.40;;;1.20;;
19167;SDS011;9716;53.114;18.040;2023-07-29T08:49:20;1.00;;;0.90;;
19167;SDS011;9716;53.114;18.040;2023-07-29T08:51:50;1.73;;;1.10;;
19167;SDS011;9716;53.114;18.040;2023-07-29T08:54:23;1.13;;;0.77;;
19167;SDS011;9716;53.114;18.040;2023-07-29T08:56:52;5.90;;;1.05;;
19167;SDS011;9716;53.114;18.040;2023-07-29T08:59:21;1.48;;;1.10;;
19167;SDS011;9716;53.114;18.040;2023-07-29T09:01:49;1.35;;;1.10;;
19167;SDS011;9716;53.114;18.040;2023-07-29T09:04:22;1.42;;;1.10;;
19167;SDS011;9716;53.114;18.040;2023-07-29T09:06:52;6.63;;;1.08;;
19167;SDS011;9716;53.114;18.040;2023-07-29T09:09:24;1.05;;;0.90;;
19167;SDS011;9716;53.114;18.040;2023-07-29T09:11:56;1.60;;;1.00;;
19167;SDS011;9716;53.114;18.040;2023-07-29T09:14:25;1.33;;;1.17;;
19167;SDS011;9716;53.114;18.040;2023-07-29T09:16:58;2.58;;;1.23;;
19167;SDS011;9716;53.114;18.040;2023-07-29T09:22:18;0.85;;;0.85;;
19167;SDS011;9716;53.114;18.040;2023-07-29T09:24:49;0.70;;;0.70;;
19167;SDS011;9716;53.114;18.040;2023-07-29T09:27:24;1.25;;;0.93;;
19167;SDS011;9716;53.114;18.040;2023-07-29T09:29:54;0.60;;;0.60;;
19167;SDS011;9716;53.114;18.040;2023-07-29T09:32:24;1.95;;;0.82;;
19167;SDS011;9716;53.114;18.040;2023-07-29T09:34:53;1.10;;;1.00;;
19167;SDS011;9716;53.114;18.040;2023-07-29T09:37:22;1.58;;;0.90;;
19167;SDS011;9716;53.114;18.040;2023-07-29T09:39:52;1.27;;;0.90;;
19167;SDS011;9716;53.114;18.040;2023-07-29T09:42:23;2.00;;;0.90;;
19167;SDS011;9716;53.114;18.040;2023-07-29T09:44:51;1.55;;;1.10;;
19167;SDS011;9716;53.114;18.040;2023-07-29T09:47:20;1.42;;;0.80;;
19167;SDS011;9716;53.114;18.040;2023-07-29T09:49:49;5.03;;;1.10;;
19167;SDS011;9716;53.114;18.040;2023-07-29T09:52:18;1.60;;;1.00;;
19167;SDS011;9716;53.114;18.040;2023-07-29T09:54:49;1.25;;;1.15;;
19167;SDS011;9716;53.114;18.040;2023-07-29T09:57:19;1.40;;;0.95;;
19167;SDS011;9716;53.114;18.040;2023-07-29T09:59:54;1.52;;;0.90;;
19167;SDS011;9716;53.114;18.040;2023-07-29T10:02:23;1.35;;;1.05;;
19167;SDS011;9716;53.114;18.040;2023-07-29T10:04:56;2.38;;;0.95;;
19167;SDS011;9716;53.114;18.040;2023-07-29T10:07:25;0.93;;;0.90;;
19167;SDS011;9716;53.114;18.040;2023-07-29T10:09:54;0.70;;;0.70;;
19167;SDS011;9716;53.114;18.040;2023-07-29T10:12:27;2.08;;;1.10;;
19167;SDS011;9716;53.114;18.040;2023-07-29T10:14:56;1.35;;;1.10;;
19167;SDS011;9716;53.114;18.040;2023-07-29T10:17:27;3.60;;;1.08;;
19167;SDS011;9716;53.114;18.040;2023-07-29T10:19:57;0.93;;;0.90;;
19167;SDS011;9716;53.114;18.040;2023-07-29T10:22:27;0.85;;;0.85;;
19167;SDS011;9716;53.114;18.040;2023-07-29T10:25:02;1.10;;;1.00;;
19167;SDS011;9716;53.114;18.040;2023-07-29T10:27:36;0.88;;;0.82;;
19167;SDS011;9716;53.114;18.040;2023-07-29T10:30:11;1.17;;;1.00;;
19167;SDS011;9716;53.114;18.040;2023-07-29T10:32:41;0.70;;;0.70;;
19167;SDS011;9716;53.114;18.040;2023-07-29T10:35:11;1.20;;;0.70;;
19167;SDS011;9716;53.114;18.040;2023-07-29T10:37:40;2.05;;;0.80;;
19167;SDS011;9716;53.114;18.040;2023-07-29T10:40:10;0.80;;;0.80;;
19167;SDS011;9716;53.114;18.040;2023-07-29T10:42:58;0.98;;;0.80;;
19167;SDS011;9716;53.114;18.040;2023-07-29T10:45:36;1.08;;;0.70;;
19167;SDS011;9716;53.114;18.040;2023-07-29T10:48:06;1.17;;;0.95;;
19167;SDS011;9716;53.114;18.040;2023-07-29T10:50:38;1.13;;;0.80;;
19167;SDS011;9716;53.114;18.040;2023-07-29T10:53:06;0.90;;;0.80;;
19167;SDS011;9716;53.114;18.040;2023-07-29T10:55:35;1.15;;;0.70;;
19167;SDS011;9716;53.114;18.040;2023-07-29T10:58:06;0.80;;;0.80;;
19167;SDS011;9716;53.114;18.040;2023-07-29T11:00:35;1.85;;;0.90;;
19167;SDS011;9716;53.114;18.040;2023-07-29T11:03:05;1.40;;;0.73;;
19167;SDS011;9716;53.114;18.040;2023-07-29T11:05:41;0.90;;;0.80;;
19167;SDS011;9716;53.114;18.040;2023-07-29T11:08:15;1.17;;;0.90;;
19167;SDS011;9716;53.114;18.040;2023-07-29T11:10:56;1.33;;;0.80;;
19167;SDS011;9716;53.114;18.040;2023-07-29T11:13:28;1.23;;;0.90;;
19167;SDS011;9716;53.114;18.040;2023-07-29T11:15:59;1.65;;;0.95;;
19167;SDS011;9716;53.114;18.040;2023-07-29T11:18:29;0.65;;;0.60;;
19167;SDS011;9716;53.114;18.040;2023-07-29T11:20:59;1.48;;;0.90;;
19167;SDS011;9716;53.114;18.040;2023-07-29T11:23:30;0.93;;;0.70;;
19167;SDS011;9716;53.114;18.040;2023-07-29T11:25:59;1.60;;;0.70;;
19167;SDS011;9716;53.114;18.040;2023-07-29T11:28:30;0.70;;;0.70;;
19167;SDS011;9716;53.114;18.040;2023-07-29T11:30:58;0.60;;;0.60;;
19167;SDS011;9716;53.114;18.040;2023-07-29T11:33:27;0.75;;;0.75;;
19167;SDS011;9716;53.114;18.040;2023-07-29T11:35:56;0.70;;;0.70;;
19167;SDS011;9716;53.114;18.040;2023-07-29T11:38:25;1.00;;;0.70;;
19167;SDS011;9716;53.114;18.040;2023-07-29T11:40:58;0.68;;;0.68;;
19167;SDS011;9716;53.114;18.040;2023-07-29T11:43:34;0.50;;;0.50;;
19167;SDS011;9716;53.114;18.040;2023-07-29T11:46:03;1.02;;;0.95;;
19167;SDS011;9716;53.114;18.040;2023-07-29T11:48:32;1.17;;;1.08;;
19167;SDS011;9716;53.114;18.040;2023-07-29T11:51:01;1.45;;;0.88;;
19167;SDS011;9716;53.114;18.040;2023-07-29T11:53:31;0.90;;;0.85;;
19167;SDS011;9716;53.114;18.040;2023-07-29T11:56:01;0.85;;;0.70;;
19167;SDS011;9716;53.114;18.040;2023-07-29T11:58:33;0.80;;;0.80;;
19167;SDS011;9716;53.114;18.040;2023-07-29T12:01:01;0.82;;;0.80;;
19167;SDS011;9716;53.114;18.040;2023-07-29T12:03:31;0.95;;;0.77;;
19167;SDS011;9716;53.114;18.040;2023-07-29T12:06:00;0.73;;;0.73;;
19167;SDS011;9716;53.114;18.040;2023-07-29T12:08:29;1.02;;;0.93;;
19167;SDS011;9716;53.114;18.040;2023-07-29T12:10:57;0.93;;;0.80;;
19167;SDS011;9716;53.114;18.040;2023-07-29T12:13:26;0.70;;;0.70;;
19167;SDS011;9716;53.114;18.040;2023-07-29T12:16:02;1.02;;;0.90;;
19167;SDS011;9716;53.114;18.040;2023-07-29T12:18:31;0.77;;;0.77;;
19167;SDS011;9716;53.114;18.040;2023-07-29T12:21:03;0.80;;;0.80;;
19167;SDS011;9716;53.114;18.040;2023-07-29T12:23:32;0.80;;;0.80;;
19167;SDS011;9716;53.114;18.040;2023-07-29T12:26:00;0.98;;;0.95;;
19167;SDS011;9716;53.114;18.040;2023-07-29T12:28:30;1.15;;;0.95;;
19167;SDS011;9716;53.114;18.040;2023-07-29T12:30:58;1.42;;;0.88;;
19167;SDS011;9716;53.114;18.040;2023-07-29T12:33:32;1.02;;;0.95;;
19167;SDS011;9716;53.114;18.040;2023-07-29T12:36:01;1.23;;;1.13;;
19167;SDS011;9716;53.114;18.040;2023-07-29T12:38:30;1.25;;;0.93;;
19167;SDS011;9716;53.114;18.040;2023-07-29T12:40:58;1.08;;;0.98;;
19167;SDS011;9716;53.114;18.040;2023-07-29T12:43:27;2.38;;;1.30;;
19167;SDS011;9716;53.114;18.040;2023-07-29T12:45:57;2.05;;;0.73;;
19167;SDS011;9716;53.114;18.040;2023-07-29T12:48:26;1.33;;;1.23;;
19167;SDS011;9716;53.114;18.040;2023-07-29T12:50:56;0.98;;;0.95;;
19167;SDS011;9716;53.114;18.040;2023-07-29T12:53:25;1.63;;;1.00;;
19167;SDS011;9716;53.114;18.040;2023-07-29T12:55:53;0.95;;;0.85;;
19167;SDS011;9716;53.114;18.040;2023-07-29T12:58:22;1.42;;;0.90;;
19167;SDS011;9716;53.114;18.040;2023-07-29T13:00:50;2.58;;;1.13;;
19167;SDS011;9716;53.114;18.040;2023-07-29T13:03:19;1.77;;;1.02;;
19167;SDS011;9716;53.114;18.040;2023-07-29T13:05:48;0.90;;;0.90;;
19167;SDS011;9716;53.114;18.040;2023-07-29T13:08:18;1.25;;;1.10;;
19167;SDS011;9716;53.114;18.040;2023-07-29T13:10:46;1.20;;;1.00;;
19167;SDS011;9716;53.114;18.040;2023-07-29T13:13:15;0.77;;;0.77;;
19167;SDS011;9716;53.114;18.040;2023-07-29T13:15:43;1.48;;;1.20;;
19167;SDS011;9716;53.114;18.040;2023-07-29T13:18:12;1.40;;;1.20;;
19167;SDS011;9716;53.114;18.040;2023-07-29T13:20:40;1.15;;;0.90;;
19167;SDS011;9716;53.114;18.040;2023-07-29T13:23:09;1.15;;;0.90;;
19167;SDS011;9716;53.114;18.040;2023-07-29T13:25:39;1.10;;;1.00;;
19167;SDS011;9716;53.114;18.040;2023-07-29T13:28:09;1.08;;;0.98;;
19167;SDS011;9716;53.114;18.040;2023-07-29T13:30:39;2.25;;;0.90;;
19167;SDS011;9716;53.114;18.040;2023-07-29T13:33:08;0.98;;;0.90;;
19167;SDS011;9716;53.114;18.040;2023-07-29T13:35:37;0.80;;;0.80;;
19167;SDS011;9716;53.114;18.040;2023-07-29T13:38:06;1.50;;;1.00;;
19167;SDS011;9716;53.114;18.040;2023-07-29T13:40:34;0.98;;;0.95;;
19167;SDS011;9716;53.114;18.040;2023-07-29T13:43:08;2.30;;;0.75;;
19167;SDS011;9716;53.114;18.040;2023-07-29T13:45:36;1.50;;;1.02;;
19167;SDS011;9716;53.114;18.040;2023-07-29T13:48:07;2.53;;;1.25;;
19167;SDS011;9716;53.114;18.040;2023-07-29T13:50:35;1.60;;;1.20;;
19167;SDS011;9716;53.114;18.040;2023-07-29T13:53:04;1.33;;;0.70;;
19167;SDS011;9716;53.114;18.040;2023-07-29T13:55:32;5.32;;;0.90;;
19167;SDS011;9716;53.114;18.040;2023-07-29T13:58:01;2.13;;;1.35;;
19167;SDS011;9716;53.114;18.040;2023-07-29T14:00:31;1.10;;;0.98;;
19167;SDS011;9716;53.114;18.040;2023-07-29T14:02:59;1.85;;;1.17;;
19167;SDS011;9716;53.114;18.040;2023-07-29T14:05:28;1.35;;;1.10;;
19167;SDS011;9716;53.114;18.040;2023-07-29T14:07:57;1.67;;;1.30;;
19167;SDS011;9716;53.114;18.040;2023-07-29T14:10:25;1.73;;;1.08;;
19167;SDS011;9716;53.114;18.040;2023-07-29T14:12:54;2.05;;;1.17;;
19167;SDS011;9716;53.114;18.040;2023-07-29T14:15:22;1.13;;;1.02;;
19167;SDS011;9716;53.114;18.040;2023-07-29T14:17:52;1.80;;;0.98;;
19167;SDS011;9716;53.114;18.040;2023-07-29T14:20:21;1.08;;;1.08;;
19167;SDS011;9716;53.114;18.040;2023-07-29T14:22:49;1.23;;;1.13;;
19167;SDS011;9716;53.114;18.040;2023-07-29T14:25:18;1.40;;;1.10;;
19167;SDS011;9716;53.114;18.040;2023-07-29T14:27:46;1.65;;;1.30;;
19167;SDS011;9716;53.114;18.040;2023-07-29T14:30:15;1.38;;;0.95;;
19167;SDS011;9716;53.114;18.040;2023-07-29T14:32:43;2.33;;;1.27;;
19167;SDS011;9716;53.114;18.040;2023-07-29T14:35:13;1.55;;;1.17;;
19167;SDS011;9716;53.114;18.040;2023-07-29T14:37:42;1.35;;;1.08;;
19167;SDS011;9716;53.114;18.040;2023-07-29T14:40:10;1.30;;;0.98;;
19167;SDS011;9716;53.114;18.040;2023-07-29T14:42:38;1.38;;;1.27;;
19167;SDS011;9716;53.114;18.040;2023-07-29T14:45:07;1.02;;;0.93;;
19167;SDS011;9716;53.114;18.040;2023-07-29T14:47:36;1.15;;;0.90;;
19167;SDS011;9716;53.114;18.040;2023-07-29T14:50:05;1.10;;;1.00;;
19167;SDS011;9716;53.114;18.040;2023-07-29T14:52:35;1.23;;;1.13;;
19167;SDS011;9716;53.114;18.040;2023-07-29T14:55:04;1.42;;;1.23;;
19167;SDS011;9716;53.114;18.040;2023-07-29T14:57:33;1.15;;;1.05;;
19167;SDS011;9716;53.114;18.040;2023-07-29T15:00:03;2.10;;;1.40;;
19167;SDS011;9716;53.114;18.040;2023-07-29T15:02:33;2.00;;;1.00;;
19167;SDS011;9716;53.114;18.040;2023-07-29T15:05:01;4.03;;;1.33;;